Time;durP1;ratioP1;P1;durP2;ratioP2;P2;SDS_P1;SDS_P2;PMS_P1;PMS_P2;Temp;Humidity;BMP_temperature;BMP_pressure;BME280_temperature;BME280_humidity;BME280_pressure;Samples;Min_cycle;Max_cycle;Signal;HPM_P1;HPM_P2
2022/07/20 00:00:25;;;;;;;5.05;3.80;;;26.60;68.30;;;;;;10404600;28;20076;-61
2022/07/20 00:05:26;;;;;;;5.97;3.80;;;26.60;68.40;;;;;;10404831;28;20526;-62
2022/07/20 00:15:47;;;;;;;5.07;3.28;;;26.50;68.40;;;;;;10410857;28;20108;-62
2022/07/20 00:20:47;;;;;;;4.28;3.70;;;26.50;68.40;;;;;;10410824;28;20036;-62
2022/07/20 00:25:48;;;;;;;5.88;3.88;;;26.40;68.40;;;;;;10413189;28;20029;-62
2022/07/20 00:30:49;;;;;;;4.65;3.95;;;26.40;68.50;;;;;;10413406;28;20029;-61
2022/07/20 00:35:50;;;;;;;4.35;3.60;;;26.30;68.40;;;;;;10411105;28;20068;-61
2022/07/20 00:40:50;;;;;;;4.43;3.78;;;26.30;68.40;;;;;;10414907;28;20033;-63
2022/07/20 00:45:51;;;;;;;4.50;3.38;;;26.30;68.50;;;;;;10412596;28;20024;-61
2022/07/20 00:50:52;;;;;;;5.93;3.50;;;26.20;68.40;;;;;;10413125;28;20053;-62
2022/07/20 00:55:52;;;;;;;3.90;3.53;;;26.20;68.50;;;;;;10410948;28;20084;-61
2022/07/20 01:00:53;;;;;;;4.10;3.35;;;26.10;68.40;;;;;;10415725;28;20052;-62
2022/07/20 01:05:54;;;;;;;4.85;3.70;;;26.10;68.50;;;;;;10416715;28;20029;-62
2022/07/20 01:10:56;;;;;;;3.88;3.47;;;26.10;68.50;;;;;;10416627;28;20036;-62
2022/07/20 01:15:57;;;;;;;4.60;3.17;;;26.00;68.50;;;;;;10420118;28;20017;-61
2022/07/20 01:21:03;;;;;;;3.72;3.35;;;26.00;68.50;;;;;;10414938;28;20186;-61
2022/07/20 01:26:04;;;;;;;4.80;3.85;;;25.90;68.50;;;;;;10413395;28;20014;-62
2022/07/20 01:31:05;;;;;;;3.88;3.50;;;25.90;68.60;;;;;;10418745;28;20025;-61
2022/07/20 01:36:06;;;;;;;4.78;3.65;;;25.80;68.50;;;;;;10414131;28;20152;-62
2022/07/20 01:41:07;;;;;;;4.47;3.58;;;25.80;68.50;;;;;;10414997;28;20067;-62
2022/07/20 01:46:07;;;;;;;4.00;3.58;;;25.80;68.50;;;;;;10412075;28;20068;-62
2022/07/20 01:51:08;;;;;;;4.28;3.60;;;25.70;68.40;;;;;;10408272;28;20057;-61
2022/07/20 01:56:09;;;;;;;4.55;3.60;;;25.70;69.00;;;;;;10410980;28;20367;-62
2022/07/20 02:01:09;;;;;;;3.90;3.38;;;25.70;68.50;;;;;;10411947;28;20049;-61
2022/07/20 02:06:10;;;;;;;4.60;3.45;;;25.60;68.40;;;;;;10407840;28;20427;-62
2022/07/20 02:11:11;;;;;;;4.45;3.55;;;25.60;68.40;;;;;;10407834;28;20068;-62
2022/07/20 02:16:14;;;;;;;4.22;3.78;;;25.50;68.30;;;;;;10408892;28;20570;-61
2022/07/20 02:21:16;;;;;;;5.32;3.40;;;25.50;68.30;;;;;;10410245;28;20041;-61
2022/07/20 02:26:17;;;;;;;4.20;3.70;;;25.50;68.30;;;;;;10410450;28;20033;-62
2022/07/20 02:31:18;;;;;;;4.07;3.53;;;25.50;68.20;;;;;;10410509;28;20653;-62
2022/07/20 02:36:19;;;;;;;7.00;3.50;;;25.40;68.20;;;;;;10410313;28;20018;-61
2022/07/20 02:41:20;;;;;;;8.48;4.00;;;25.40;68.20;;;;;;10407183;28;20083;-62
2022/07/20 02:46:21;;;;;;;3.90;3.53;;;25.30;68.20;;;;;;10414731;28;20117;-61
2022/07/20 02:51:21;;;;;;;4.40;3.35;;;25.30;68.10;;;;;;10409402;28;20052;-61
2022/07/20 02:56:22;;;;;;;4.63;3.75;;;25.30;68.20;;;;;;10409501;28;20024;-61
2022/07/20 03:01:23;;;;;;;6.45;3.88;;;25.20;68.10;;;;;;10415056;28;20033;-61
2022/07/20 03:06:23;;;;;;;4.90;4.13;;;25.20;68.10;;;;;;10415521;28;20026;-61
2022/07/20 03:11:24;;;;;;;4.15;3.63;;;25.20;68.10;;;;;;10412873;28;20392;-61
2022/07/20 03:16:25;;;;;;;3.97;3.58;;;25.10;68.00;;;;;;10406896;28;20025;-62
2022/07/20 03:21:25;;;;;;;4.30;3.80;;;25.10;68.00;;;;;;10406342;28;20060;-62
2022/07/20 03:26:26;;;;;;;4.70;3.88;;;25.10;68.00;;;;;;10406449;28;20018;-62
2022/07/20 03:31:26;;;;;;;7.70;4.15;;;25.00;67.90;;;;;;10406958;28;20074;-62
2022/07/20 03:36:27;;;;;;;4.40;3.92;;;25.00;67.90;;;;;;10409925;28;20025;-61
2022/07/20 03:41:28;;;;;;;5.10;3.95;;;25.00;67.90;;;;;;10404754;28;20445;-61
2022/07/20 03:46:29;;;;;;;5.78;4.15;;;24.90;67.80;;;;;;10404617;28;20049;-61
2022/07/20 03:51:29;;;;;;;5.10;3.45;;;24.90;67.80;;;;;;10402564;28;20042;-62
2022/07/20 03:56:30;;;;;;;4.10;3.63;;;24.90;67.70;;;;;;10403187;28;20087;-61
2022/07/20 04:01:31;;;;;;;6.22;4.15;;;24.80;67.60;;;;;;10362327;28;20045;-62
2022/07/20 04:06:32;;;;;;;4.15;3.75;;;24.80;67.60;;;;;;10331195;28;20035;-61
2022/07/20 04:11:32;;;;;;;4.50;3.95;;;24.80;67.70;;;;;;10339481;28;20068;-60
2022/07/20 04:16:33;;;;;;;4.53;3.85;;;24.80;67.80;;;;;;10337593;28;20022;-64
2022/07/20 04:21:34;;;;;;;13.18;4.25;;;24.70;67.70;;;;;;10328935;28;20551;-62
2022/07/20 04:26:34;;;;;;;4.32;3.92;;;24.70;67.70;;;;;;10325147;28;20432;-63
2022/07/20 04:31:35;;;;;;;4.90;4.32;;;24.70;67.70;;;;;;10327066;28;20056;-62
2022/07/20 04:36:36;;;;;;;5.60;4.20;;;24.70;67.80;;;;;;10326543;28;20341;-62
2022/07/20 04:41:36;;;;;;;4.30;3.65;;;24.70;67.80;;;;;;10335119;28;20115;-61
2022/07/20 04:46:37;;;;;;;5.18;3.90;;;24.60;67.80;;;;;;10333374;28;20022;-62
2022/07/20 04:51:38;;;;;;;5.72;3.75;;;24.60;67.80;;;;;;10333489;28;20294;-61
2022/07/20 04:56:39;;;;;;;4.25;3.80;;;24.60;67.80;;;;;;10342016;28;20033;-63
2022/07/20 05:01:39;;;;;;;5.72;4.20;;;24.50;67.70;;;;;;10327540;28;20064;-62
2022/07/20 05:06:40;;;;;;;6.13;4.43;;;24.50;67.80;;;;;;10325326;28;20310;-61
2022/07/20 05:11:41;;;;;;;6.47;3.95;;;24.50;67.80;;;;;;10329531;28;20128;-61
2022/07/20 05:16:41;;;;;;;6.28;4.15;;;24.50;67.90;;;;;;10324939;28;20029;-61
2022/07/20 05:21:42;;;;;;;7.85;4.35;;;24.40;67.70;;;;;;10339174;28;20057;-61
2022/07/20 05:26:43;;;;;;;4.35;3.92;;;24.50;67.90;;;;;;10333982;28;20036;-61
2022/07/20 05:31:43;;;;;;;6.10;4.40;;;24.40;67.80;;;;;;10330692;28;20310;-61
2022/07/20 05:36:44;;;;;;;6.65;4.20;;;24.40;67.90;;;;;;10327743;28;20041;-61
2022/07/20 05:41:47;;;;;;;4.55;3.60;;;24.40;67.90;;;;;;10328166;28;20224;-61
2022/07/20 05:46:48;;;;;;;8.45;4.90;;;24.40;67.90;;;;;;10332464;28;20035;-62
2022/07/20 05:51:48;;;;;;;9.45;5.63;;;24.40;67.80;;;;;;10326216;28;20045;-62
2022/07/20 05:56:49;;;;;;;7.00;4.80;;;24.30;68.00;;;;;;10330696;28;20053;-64
2022/07/20 06:01:50;;;;;;;8.65;5.55;;;24.10;68.00;;;;;;10328493;28;20518;-62
2022/07/20 06:06:51;;;;;;;6.35;5.00;;;24.10;68.00;;;;;;10325511;28;20567;-62
2022/07/20 06:11:52;;;;;;;6.32;5.30;;;24.10;68.00;;;;;;10324228;28;20033;-61
2022/07/20 06:16:52;;;;;;;6.03;5.38;;;24.10;68.20;;;;;;10328982;28;20031;-65
2022/07/20 06:21:53;;;;;;;8.63;5.63;;;24.10;67.90;;;;;;10325847;28;20424;-63
2022/07/20 06:26:54;;;;;;;6.72;5.65;;;24.10;67.80;;;;;;10328886;28;20446;-69
2022/07/20 06:31:55;;;;;;;11.30;6.22;;;24.10;68.40;;;;;;10341862;28;20067;-67
2022/07/20 06:36:55;;;;;;;14.10;6.28;;;24.10;67.90;;;;;;10337270;28;20049;-64
2022/07/20 06:41:56;;;;;;;20.40;7.93;;;24.20;68.10;;;;;;10339666;28;20049;-64
2022/07/20 06:46:57;;;;;;;10.23;6.60;;;24.20;68.50;;;;;;10336413;28;20138;-70
2022/07/20 06:51:58;;;;;;;13.43;7.53;;;24.20;68.70;;;;;;10336527;28;20096;-67
2022/07/20 06:56:59;;;;;;;14.35;8.63;;;24.20;69.20;;;;;;10338082;28;20032;-64
2022/07/20 07:02:00;;;;;;;18.45;8.80;;;24.20;70.00;;;;;;10330421;28;20375;-68
2022/07/20 07:07:02;;;;;;;11.70;8.98;;;24.30;70.70;;;;;;10335937;28;20051;-62
2022/07/20 07:12:02;;;;;;;16.70;10.05;;;24.40;71.50;;;;;;10332800;28;20048;-63
2022/07/20 07:17:03;;;;;;;17.30;10.68;;;24.40;71.20;;;;;;10324686;28;20031;-62
2022/07/20 07:22:04;;;;;;;21.30;12.30;;;24.50;71.80;;;;;;10329149;28;20362;-61
2022/07/20 07:27:05;;;;;;;22.05;14.68;;;24.60;72.60;;;;;;10325539;28;20033;-62
2022/07/20 07:32:06;;;;;;;23.70;14.13;;;24.60;73.70;;;;;;10321489;28;20605;-62
2022/07/20 07:37:06;;;;;;;25.65;15.00;;;24.60;74.50;;;;;;10337720;28;20044;-62
2022/07/20 07:42:08;;;;;;;25.20;15.05;;;24.70;75.10;;;;;;10326756;28;20878;-61
2022/07/20 07:47:09;;;;;;;22.92;14.38;;;24.70;75.30;;;;;;10330204;28;20033;-61
2022/07/20 07:52:10;;;;;;;23.23;13.90;;;24.80;75.60;;;;;;10335122;28;20506;-62
2022/07/20 07:57:10;;;;;;;22.85;14.65;;;24.80;75.90;;;;;;10345181;28;20719;-62
2022/07/20 08:02:11;;;;;;;28.17;15.70;;;24.90;76.20;;;;;;10341615;28;20033;-61
2022/07/20 08:07:12;;;;;;;25.15;15.75;;;24.90;76.20;;;;;;10335471;28;20033;-61
2022/07/20 08:12:12;;;;;;;21.00;15.23;;;24.90;76.30;;;;;;10330028;28;20041;-63
2022/07/20 08:17:13;;;;;;;31.20;16.90;;;25.00;76.50;;;;;;10339241;28;20265;-61
2022/07/20 08:22:14;;;;;;;25.05;16.05;;;25.00;76.70;;;;;;10338763;28;20041;-63
2022/07/20 08:27:15;;;;;;;26.50;16.75;;;25.00;76.70;;;;;;10340273;28;20063;-62
2022/07/20 08:32:16;;;;;;;26.25;17.80;;;25.00;76.80;;;;;;10331749;28;20139;-61
2022/07/20 08:37:17;;;;;;;30.42;19.05;;;25.10;76.80;;;;;;10333202;28;20059;-62
2022/07/20 08:42:18;;;;;;;26.80;17.88;;;25.10;76.80;;;;;;10346886;28;20902;-62
2022/07/20 08:47:21;;;;;;;33.22;19.55;;;25.20;76.80;;;;;;10340956;28;20758;-62
2022/07/20 08:52:22;;;;;;;30.17;18.63;;;25.20;76.80;;;;;;10348835;28;20053;-62
2022/07/20 08:57:23;;;;;;;30.58;19.67;;;25.20;76.60;;;;;;10348415;28;20357;-63
2022/07/20 09:02:24;;;;;;;30.88;20.10;;;25.30;76.50;;;;;;10352116;28;20441;-62
2022/07/20 09:07:42;;;;;;;27.33;18.38;;;25.30;76.40;;;;;;10346697;28;20432;-63
2022/07/20 09:13:13;;;;;;;29.05;20.58;;;25.40;76.70;;;;;;10347741;28;20110;-62
2022/07/20 09:18:32;;;;;;;31.15;18.92;;;25.40;76.60;;;;;;10354705;28;20040;-61
2022/07/20 09:23:47;;;;;;;29.00;20.00;;;25.40;77.10;;;;;;10340952;28;20033;-61
2022/07/20 09:28:53;;;;;;;22.83;17.30;;;25.50;76.40;;;;;;10354126;28;20041;-62
2022/07/20 09:33:57;;;;;;;23.08;16.83;;;25.50;76.20;;;;;;10351871;28;20385;-61
2022/07/20 09:39:14;;;;;;;24.88;17.13;;;25.50;75.90;;;;;;10348078;28;20029;-61
2022/07/20 09:44:28;;;;;;;27.30;16.27;;;25.50;75.80;;;;;;10346575;28;20629;-61
2022/07/20 09:49:32;;;;;;;27.40;16.00;;;25.60;75.50;;;;;;10345925;28;20037;-62
2022/07/20 09:54:33;;;;;;;22.98;14.75;;;25.60;75.40;;;;;;10345333;28;20033;-62
2022/07/20 09:59:35;;;;;;;21.25;14.60;;;25.70;75.30;;;;;;10347049;28;20029;-62
2022/07/20 10:04:36;;;;;;;20.63;14.48;;;25.70;75.10;;;;;;10349174;28;20093;-61
2022/07/20 10:09:37;;;;;;;20.85;13.05;;;25.70;75.10;;;;;;10341415;28;20710;-62
2022/07/20 10:14:41;;;;;;;20.75;13.73;;;25.70;75.00;;;;;;10344646;28;20032;-62
2022/07/20 10:19:43;;;;;;;18.40;13.10;;;25.80;74.80;;;;;;10350367;28;20029;-62
2022/07/20 10:24:44;;;;;;;18.33;12.38;;;25.80;74.70;;;;;;10346590;28;20025;-61
2022/07/20 10:29:47;;;;;;;19.33;12.93;;;25.90;74.60;;;;;;10337496;28;20033;-61
2022/07/20 10:34:54;;;;;;;20.23;13.00;;;25.90;74.40;;;;;;10358863;28;20033;-61
2022/07/20 10:40:13;;;;;;;16.90;12.02;;;25.90;74.40;;;;;;10336618;28;20029;-61
2022/07/20 10:45:17;;;;;;;21.70;12.23;;;25.90;74.30;;;;;;10336446;28;20039;-62
2022/07/20 10:50:18;;;;;;;15.30;11.38;;;26.00;74.20;;;;;;10338906;28;20578;-61
2022/07/20 10:55:35;;;;;;;15.60;11.52;;;26.00;74.10;;;;;;10342327;28;20656;-61
2022/07/20 11:00:38;;;;;;;15.27;11.38;;;26.10;74.00;;;;;;10336666;28;20041;-61
2022/07/20 11:05:39;;;;;;;21.42;12.10;;;26.10;74.00;;;;;;10342335;28;20166;-62
2022/07/20 11:10:41;;;;;;;15.77;11.48;;;26.10;73.90;;;;;;10331710;28;20657;-61
2022/07/20 11:15:48;;;;;;;15.35;10.23;;;26.20;74.40;;;;;;10335353;28;20282;-62
2022/07/20 11:20:55;;;;;;;15.13;10.30;;;26.30;73.70;;;;;;10324972;28;20049;-61
2022/07/20 11:25:59;;;;;;;13.30;10.02;;;26.30;73.50;;;;;;10332161;28;20277;-62
2022/07/20 11:31:02;;;;;;;13.23;10.20;;;26.40;73.30;;;;;;10339377;28;20539;-61
2022/07/20 11:36:27;;;;;;;16.40;10.32;;;26.40;73.10;;;;;;10333916;28;20471;-62
2022/07/20 11:41:31;;;;;;;14.20;10.48;;;26.50;72.70;;;;;;10331265;28;20175;-61
2022/07/20 11:46:40;;;;;;;15.93;10.85;;;26.50;72.90;;;;;;10332333;28;20937;-61
2022/07/20 11:51:43;;;;;;;17.58;10.65;;;26.60;72.20;;;;;;10331324;28;20482;-62
2022/07/20 11:56:46;;;;;;;14.80;9.75;;;26.60;72.40;;;;;;10330801;28;20053;-61
2022/07/20 12:01:50;;;;;;;14.10;10.77;;;26.70;72.20;;;;;;10338564;28;20045;-61
2022/07/20 12:06:53;;;;;;;19.40;10.10;;;26.70;72.00;;;;;;10332945;28;20381;-61
2022/07/20 12:11:59;;;;;;;12.68;9.73;;;26.80;71.90;;;;;;10334778;28;20040;-61
2022/07/20 12:17:21;;;;;;;13.70;9.57;;;26.80;71.90;;;;;;10351328;28;20108;-61
2022/07/20 12:22:29;;;;;;;12.45;8.80;;;26.90;71.90;;;;;;10343221;28;20077;-62
2022/07/20 12:27:31;;;;;;;12.18;8.77;;;26.90;71.80;;;;;;10339686;28;20106;-61
2022/07/20 12:32:34;;;;;;;9.82;8.27;;;27.00;71.70;;;;;;10342548;28;20387;-61
2022/07/20 12:37:50;;;;;;;14.55;9.00;;;27.00;71.60;;;;;;10349098;28;20447;-61
2022/07/20 12:42:51;;;;;;;13.07;8.27;;;27.10;71.40;;;;;;10346115;28;20030;-61
2022/07/20 12:47:51;;;;;;;12.60;7.88;;;27.10;71.60;;;;;;10341556;28;20037;-61
2022/07/20 12:52:52;;;;;;;11.07;7.63;;;27.20;71.70;;;;;;10346444;28;20033;-62
2022/07/20 12:57:53;;;;;;;11.95;7.85;;;27.20;71.50;;;;;;10346556;28;20394;-61
2022/07/20 13:02:54;;;;;;;10.43;7.40;;;27.30;71.50;;;;;;10343198;28;20285;-61
2022/07/20 13:07:55;;;;;;;10.43;7.03;;;27.30;71.40;;;;;;10346654;28;20025;-62
2022/07/20 13:12:55;;;;;;;9.43;6.70;;;27.40;71.40;;;;;;10348547;28;20029;-65
2022/07/20 13:17:57;;;;;;;10.52;6.53;;;27.40;71.30;;;;;;10349419;28;20042;-60
2022/07/20 13:22:59;;;;;;;8.60;6.47;;;27.60;71.20;;;;;;10333617;28;20567;-60
2022/07/20 13:28:00;;;;;;;10.90;6.53;;;27.70;71.20;;;;;;10344384;28;20111;-63
2022/07/20 13:33:00;;;;;;;9.50;6.32;;;27.50;71.00;;;;;;10346617;28;20083;-61
2022/07/20 13:38:02;;;;;;;10.43;6.97;;;27.80;71.20;;;;;;10348170;28;20512;-61
2022/07/20 13:43:02;;;;;;;9.38;6.32;;;27.60;71.30;;;;;;10361040;28;20487;-61
2022/07/20 13:48:04;;;;;;;9.13;6.80;;;27.90;71.40;;;;;;10361440;28;20175;-62
2022/07/20 13:53:05;;;;;;;10.68;6.80;;;27.90;71.50;;;;;;10358061;28;20079;-62
2022/07/20 13:58:06;;;;;;;7.65;5.85;;;27.90;71.60;;;;;;10351986;28;20527;-62
2022/07/20 14:03:07;;;;;;;9.20;6.18;;;27.90;71.70;;;;;;10357918;28;20037;-62
2022/07/20 14:08:08;;;;;;;9.55;6.75;;;27.90;71.90;;;;;;10360363;28;20025;-62
2022/07/20 14:13:11;;;;;;;9.90;6.13;;;27.90;72.00;;;;;;10361613;28;20782;-62
2022/07/20 14:18:13;;;;;;;9.80;6.13;;;27.90;72.00;;;;;;10353219;28;20476;-63
2022/07/20 14:23:14;;;;;;;8.70;6.00;;;28.10;72.00;;;;;;10362808;28;20858;-63
2022/07/20 14:28:14;;;;;;;8.57;6.00;;;28.20;71.80;;;;;;10351736;28;20205;-63
2022/07/20 14:33:15;;;;;;;9.32;6.20;;;28.30;71.60;;;;;;10354534;28;20033;-62
2022/07/20 14:38:17;;;;;;;7.65;6.03;;;28.40;72.10;;;;;;10346709;28;20033;-63
2022/07/20 14:43:18;;;;;;;9.27;6.50;;;28.50;71.40;;;;;;10353337;28;20037;-63
2022/07/20 14:48:18;;;;;;;8.02;5.93;;;28.50;71.40;;;;;;10349929;28;20475;-63
2022/07/20 14:53:20;;;;;;;6.85;6.03;;;28.50;71.50;;;;;;10357292;28;20709;-63
2022/07/20 14:58:21;;;;;;;8.13;5.68;;;28.50;71.70;;;;;;10357658;28;20032;-64
2022/07/20 15:03:22;;;;;;;8.85;5.80;;;28.40;71.90;;;;;;10352823;28;20172;-64
2022/07/20 15:08:23;;;;;;;9.77;6.45;;;28.40;72.00;;;;;;12388305;22;21624;-62
2022/07/20 15:13:24;;;;;;;8.10;6.15;;;28.40;72.00;;;;;;10334404;28;20040;-63
2022/07/20 15:18:25;;;;;;;10.55;6.38;;;28.40;72.00;;;;;;10337115;28;20025;-66
2022/07/20 15:23:26;;;;;;;9.43;6.45;;;28.50;72.10;;;;;;10338705;28;20554;-64
2022/07/20 15:49:12;;;;;;;8.13;5.20;;;27.20;73.20;;;;;;11292766;23;20093;-61
2022/07/20 15:54:13;;;;;;;10.23;6.28;;;27.60;73.60;;;;;;10299635;28;20042;-62
2022/07/20 15:59:14;;;;;;;10.25;5.47;;;27.60;73.60;;;;;;10299967;28;20034;-62
2022/07/20 16:04:14;;;;;;;7.55;5.50;;;27.70;73.50;;;;;;10293316;28;20859;-61
2022/07/20 16:09:16;;;;;;;6.72;5.20;;;27.70;73.50;;;;;;10289940;28;20152;-62
2022/07/20 16:14:16;;;;;;;9.68;5.15;;;27.80;73.50;;;;;;10302992;28;20034;-61
2022/07/20 16:19:17;;;;;;;10.52;6.30;;;27.80;73.50;;;;;;10301229;28;20536;-66
2022/07/20 16:24:18;;;;;;;10.48;5.95;;;27.80;73.90;;;;;;10300184;28;20483;-64
2022/07/20 16:29:20;;;;;;;11.38;6.20;;;27.50;74.90;;;;;;10291779;28;20087;-63
2022/07/20 16:34:21;;;;;;;10.52;6.15;;;27.40;75.40;;;;;;10304377;28;20022;-65
2022/07/20 16:39:22;;;;;;;11.10;6.57;;;27.10;75.70;;;;;;10294690;28;20037;-62
2022/07/20 16:44:23;;;;;;;8.70;5.57;;;26.80;76.40;;;;;;10293048;28;20042;-63
2022/07/20 16:49:23;;;;;;;11.80;6.30;;;26.50;76.70;;;;;;10293455;28;20200;-63
2022/07/20 16:54:24;;;;;;;8.38;5.60;;;26.40;76.80;;;;;;10285952;28;20315;-63
2022/07/20 16:59:26;;;;;;;9.75;6.18;;;26.30;76.90;;;;;;10282333;28;20095;-63
2022/07/20 17:04:26;;;;;;;13.90;6.32;;;26.20;77.00;;;;;;10287392;28;20080;-63
2022/07/20 17:09:28;;;;;;;11.23;5.63;;;26.10;76.90;;;;;;10290710;28;20112;-63
2022/07/20 17:14:28;;;;;;;7.88;5.28;;;26.40;77.30;;;;;;10288685;28;20041;-63
2022/07/20 17:19:31;;;;;;;11.63;6.07;;;26.30;77.20;;;;;;10283905;28;20438;-63
2022/07/20 17:24:31;;;;;;;11.73;5.82;;;26.30;77.20;;;;;;10290296;28;20045;-63
2022/07/20 17:29:32;;;;;;;10.73;5.80;;;26.30;77.30;;;;;;10287901;28;20509;-63
2022/07/20 17:34:33;;;;;;;8.70;5.70;;;26.30;77.60;;;;;;10286996;28;20153;-62
2022/07/20 17:39:34;;;;;;;10.68;6.57;;;26.30;77.60;;;;;;10293129;28;20120;-63
2022/07/20 17:44:35;;;;;;;10.88;5.68;;;26.30;77.30;;;;;;10290104;28;20168;-63
2022/07/20 17:49:36;;;;;;;10.32;6.22;;;26.30;77.10;;;;;;10291762;28;20471;-63
2022/07/20 17:54:36;;;;;;;6.07;4.93;;;26.30;77.00;;;;;;10287065;28;20115;-63
2022/07/20 17:59:37;;;;;;;13.60;5.47;;;26.30;76.90;;;;;;10291680;28;20268;-63
2022/07/20 18:04:38;;;;;;;11.77;5.68;;;26.20;76.70;;;;;;10292115;28;20512;-63
2022/07/20 18:09:39;;;;;;;13.60;5.10;;;26.10;76.80;;;;;;10284228;28;20585;-63
2022/07/20 18:14:40;;;;;;;9.63;4.82;;;26.00;76.70;;;;;;10283441;28;20421;-62
2022/07/20 18:19:40;;;;;;;6.05;4.20;;;26.00;76.20;;;;;;10291350;28;20480;-63
2022/07/20 18:24:41;;;;;;;7.95;3.83;;;26.00;75.70;;;;;;10290908;28;20119;-61
2022/07/20 18:29:42;;;;;;;6.97;3.80;;;26.00;75.50;;;;;;10289676;28;20057;-64
2022/07/20 18:34:42;;;;;;;8.55;3.30;;;25.90;75.10;;;;;;10285694;28;20041;-63
2022/07/20 18:39:44;;;;;;;4.70;3.03;;;25.90;74.80;;;;;;10284613;28;20038;-63
2022/07/20 18:44:45;;;;;;;6.88;3.20;;;25.80;74.90;;;;;;10286199;28;20080;-63
2022/07/20 18:49:46;;;;;;;6.78;3.25;;;25.70;74.70;;;;;;10279579;28;20084;-63
2022/07/20 18:54:47;;;;;;;5.20;3.40;;;25.70;74.90;;;;;;10291608;28;20049;-63
2022/07/20 18:59:47;;;;;;;5.95;3.63;;;25.50;75.20;;;;;;10292344;28;20033;-62
2022/07/20 19:04:48;;;;;;;6.75;3.55;;;25.30;75.50;;;;;;10296164;28;20065;-63
2022/07/20 19:09:49;;;;;;;8.48;3.97;;;25.30;76.00;;;;;;10290627;28;20127;-63
2022/07/20 19:14:50;;;;;;;7.35;3.17;;;25.20;76.10;;;;;;10295923;28;20894;-63
2022/07/20 19:19:51;;;;;;;8.73;3.47;;;25.20;76.30;;;;;;10297715;28;20046;-63
2022/07/20 19:24:52;;;;;;;7.60;3.35;;;25.10;76.50;;;;;;10290455;28;20196;-62
2022/07/20 19:29:53;;;;;;;9.25;3.67;;;25.00;76.80;;;;;;10291302;28;20037;-64
2022/07/20 19:34:53;;;;;;;6.18;3.15;;;25.00;77.20;;;;;;10291614;28;20052;-65
2022/07/20 19:39:54;;;;;;;9.27;3.65;;;25.00;77.40;;;;;;10293499;28;20033;-63
2022/07/20 19:44:55;;;;;;;7.50;3.22;;;24.80;77.60;;;;;;10292227;28;20038;-65
2022/07/20 19:49:55;;;;;;;9.80;3.65;;;24.70;78.00;;;;;;10290819;28;20080;-63
2022/07/20 19:54:56;;;;;;;8.70;3.63;;;24.50;78.40;;;;;;10292301;28;20140;-63
2022/07/20 19:59:57;;;;;;;7.18;3.53;;;24.40;78.60;;;;;;10290230;28;20256;-64
2022/07/20 20:04:58;;;;;;;10.20;3.80;;;24.30;79.80;;;;;;10297529;28;20275;-63
2022/07/20 20:09:58;;;;;;;6.95;3.33;;;24.20;79.60;;;;;;10284351;28;20057;-62
2022/07/20 20:14:59;;;;;;;6.32;3.20;;;24.20;79.60;;;;;;10286083;28;20541;-65
2022/07/20 20:20:00;;;;;;;13.23;4.00;;;24.30;79.60;;;;;;10342533;28;20220;-66
2022/07/20 20:25:01;;;;;;;10.80;4.10;;;24.30;79.80;;;;;;10367386;28;20360;-65
2022/07/20 20:30:03;;;;;;;7.90;3.88;;;24.30;79.90;;;;;;10372469;28;20030;-62
2022/07/20 20:35:04;;;;;;;10.48;4.38;;;24.20;80.30;;;;;;10373254;28;20036;-61
2022/07/20 20:40:05;;;;;;;7.68;3.55;;;24.10;80.50;;;;;;10374461;28;20042;-61
2022/07/20 20:45:06;;;;;;;7.97;3.97;;;24.10;80.80;;;;;;10379156;28;20037;-65
2022/07/20 20:50:07;;;;;;;6.00;3.35;;;24.10;80.90;;;;;;10375872;28;20404;-62
2022/07/20 20:55:09;;;;;;;7.93;3.90;;;24.20;80.90;;;;;;10375769;28;20026;-63
2022/07/20 21:00:11;;;;;;;11.23;4.30;;;24.20;80.80;;;;;;10377409;28;20028;-62
2022/07/20 21:05:12;;;;;;;5.70;3.72;;;24.20;80.90;;;;;;10380621;28;20026;-62
2022/07/20 21:10:13;;;;;;;9.95;4.18;;;24.20;81.10;;;;;;10378785;28;20026;-62
2022/07/20 21:15:14;;;;;;;10.73;3.65;;;24.10;81.40;;;;;;10379918;28;20488;-63
2022/07/20 21:20:14;;;;;;;12.63;3.90;;;24.10;81.70;;;;;;10377948;28;20044;-63
2022/07/20 21:25:16;;;;;;;8.25;3.33;;;24.10;81.70;;;;;;10370785;28;20128;-62
2022/07/20 21:30:16;;;;;;;9.35;3.50;;;24.20;81.20;;;;;;10376359;28;20025;-62
2022/07/20 21:35:17;;;;;;;8.75;3.83;;;24.30;80.90;;;;;;10375443;28;20033;-63
2022/07/20 21:40:18;;;;;;;4.60;3.25;;;24.40;80.70;;;;;;10377953;28;20036;-63
2022/07/20 21:45:19;;;;;;;4.72;3.20;;;24.50;80.40;;;;;;10373685;28;20034;-63
2022/07/20 21:50:20;;;;;;;6.38;3.45;;;24.60;80.20;;;;;;10374303;28;20038;-63
2022/07/20 21:55:21;;;;;;;6.22;3.60;;;24.60;80.10;;;;;;10372978;28;20033;-63
2022/07/20 22:00:22;;;;;;;7.55;3.78;;;24.60;79.90;;;;;;10374959;28;20021;-63
2022/07/20 22:05:23;;;;;;;7.13;3.78;;;24.60;79.80;;;;;;10372195;28;20032;-63
2022/07/20 22:10:24;;;;;;;6.10;3.45;;;24.70;79.70;;;;;;10376314;28;20029;-63
2022/07/20 22:15:25;;;;;;;5.03;3.25;;;24.70;79.60;;;;;;10374343;28;20480;-63
2022/07/20 22:20:25;;;;;;;7.88;3.40;;;24.70;79.60;;;;;;10373246;28;20018;-63
2022/07/20 22:25:26;;;;;;;6.03;3.22;;;24.70;79.60;;;;;;10373591;28;20044;-63
2022/07/20 22:30:27;;;;;;;5.90;3.47;;;24.70;79.50;;;;;;10377209;28;20037;-63
2022/07/20 22:35:28;;;;;;;6.28;3.83;;;24.70;79.50;;;;;;10371208;28;20026;-63
2022/07/20 22:40:29;;;;;;;5.15;3.25;;;24.70;79.50;;;;;;10374588;28;20436;-63
2022/07/20 22:45:30;;;;;;;5.32;3.20;;;24.70;79.40;;;;;;10372002;28;20037;-63
2022/07/20 22:50:31;;;;;;;5.88;3.05;;;24.70;79.40;;;;;;10370605;28;20044;-63
2022/07/20 22:55:32;;;;;;;5.03;3.22;;;24.70;79.40;;;;;;10366380;28;20030;-63
2022/07/20 23:00:32;;;;;;;5.38;3.38;;;24.70;79.40;;;;;;10368174;28;20030;-63
2022/07/20 23:05:33;;;;;;;5.65;3.63;;;24.70;79.40;;;;;;10366257;28;20489;-63
2022/07/20 23:10:34;;;;;;;6.85;3.88;;;24.70;79.40;;;;;;10370747;28;20021;-63
2022/07/20 23:15:35;;;;;;;6.50;3.80;;;24.70;79.40;;;;;;10365351;28;20037;-63
2022/07/20 23:20:36;;;;;;;6.00;3.30;;;24.60;79.40;;;;;;10367552;28;20046;-64
2022/07/20 23:25:36;;;;;;;5.60;3.35;;;24.70;79.40;;;;;;10364822;28;20041;-63
2022/07/20 23:30:38;;;;;;;6.68;3.90;;;24.60;79.40;;;;;;10365895;28;20034;-63
2022/07/20 23:35:39;;;;;;;7.35;3.50;;;24.60;79.50;;;;;;10365543;28;20022;-63
2022/07/20 23:40:40;;;;;;;5.40;3.63;;;24.60;79.50;;;;;;10364217;28;20054;-63
2022/07/20 23:45:41;;;;;;;5.32;3.28;;;24.60;79.60;;;;;;10365525;28;20030;-63
2022/07/20 23:50:41;;;;;;;7.07;3.90;;;24.60;79.70;;;;;;10370553;28;20057;-63
2022/07/20 23:55:42;;;;;;;4.90;3.80;;;24.60;79.90;;;;;;10369916;28;20014;-62
